﻿<?xml version="1.0" encoding="utf-8"?><gpx creator="Garmin Desktop App" version="1.1" xsi:schemaLocation="http://www.topografix.com/GPX/1/1 http://www.topografix.com/GPX/1/1/gpx.xsd http://www.garmin.com/xmlschemas/WaypointExtension/v1 http://www8.garmin.com/xmlschemas/WaypointExtensionv1.xsd http://www.garmin.com/xmlschemas/TrackPointExtension/v1 http://www.garmin.com/xmlschemas/TrackPointExtensionv1.xsd http://www.garmin.com/xmlschemas/GpxExtensions/v3 http://www8.garmin.com/xmlschemas/GpxExtensionsv3.xsd http://www.garmin.com/xmlschemas/ActivityExtension/v1 http://www8.garmin.com/xmlschemas/ActivityExtensionv1.xsd http://www.garmin.com/xmlschemas/AdventuresExtensions/v1 http://www8.garmin.com/xmlschemas/AdventuresExtensionv1.xsd http://www.garmin.com/xmlschemas/PressureExtension/v1 http://www.garmin.com/xmlschemas/PressureExtensionv1.xsd http://www.garmin.com/xmlschemas/TripExtensions/v1 http://www.garmin.com/xmlschemas/TripExtensionsv1.xsd http://www.garmin.com/xmlschemas/TripMetaDataExtensions/v1 http://www.garmin.com/xmlschemas/TripMetaDataExtensionsv1.xsd http://www.garmin.com/xmlschemas/ViaPointTransportationModeExtensions/v1 http://www.garmin.com/xmlschemas/ViaPointTransportationModeExtensionsv1.xsd http://www.garmin.com/xmlschemas/CreationTimeExtension/v1 http://www.garmin.com/xmlschemas/CreationTimeExtensionsv1.xsd http://www.garmin.com/xmlschemas/AccelerationExtension/v1 http://www.garmin.com/xmlschemas/AccelerationExtensionv1.xsd http://www.garmin.com/xmlschemas/PowerExtension/v1 http://www.garmin.com/xmlschemas/PowerExtensionv1.xsd http://www.garmin.com/xmlschemas/VideoExtension/v1 http://www.garmin.com/xmlschemas/VideoExtensionv1.xsd" xmlns="http://www.topografix.com/GPX/1/1" xmlns:xsi="http://www.w3.org/2001/XMLSchema-instance" xmlns:wptx1="http://www.garmin.com/xmlschemas/WaypointExtension/v1" xmlns:gpxtrx="http://www.garmin.com/xmlschemas/GpxExtensions/v3" xmlns:gpxtpx="http://www.garmin.com/xmlschemas/TrackPointExtension/v1" xmlns:gpxx="http://www.garmin.com/xmlschemas/GpxExtensions/v3" xmlns:trp="http://www.garmin.com/xmlschemas/TripExtensions/v1" xmlns:adv="http://www.garmin.com/xmlschemas/AdventuresExtensions/v1" xmlns:prs="http://www.garmin.com/xmlschemas/PressureExtension/v1" xmlns:tmd="http://www.garmin.com/xmlschemas/TripMetaDataExtensions/v1" xmlns:vptm="http://www.garmin.com/xmlschemas/ViaPointTransportationModeExtensions/v1" xmlns:ctx="http://www.garmin.com/xmlschemas/CreationTimeExtension/v1" xmlns:gpxacc="http://www.garmin.com/xmlschemas/AccelerationExtension/v1" xmlns:gpxpx="http://www.garmin.com/xmlschemas/PowerExtension/v1" xmlns:vidx1="http://www.garmin.com/xmlschemas/VideoExtension/v1">

  <metadata>
    <link href="http://www.garmin.com">
      <text>Garmin International</text>
    </link>
    <time>2023-02-15T17:06:25Z</time>
    <bounds maxlat="45.844772960990667" maxlon="7.623353758826852" minlat="45.838063331320882" minlon="7.617199430242181" />
  </metadata>

  <trk>
    <name>chamois lago di lod2023-02-12</name>
    <extensions>
      <gpxx:TrackExtension>
        <gpxx:DisplayColor>Yellow</gpxx:DisplayColor>
      </gpxx:TrackExtension>
      <gpxtrkx:TrackStatsExtension xmlns:gpxtrkx="http://www.garmin.com/xmlschemas/TrackStatsExtension/v1">
        <gpxtrkx:Distance>2890</gpxtrkx:Distance>
        <gpxtrkx:TotalElapsedTime>17027</gpxtrkx:TotalElapsedTime>
        <gpxtrkx:MovingTime>3891</gpxtrkx:MovingTime>
        <gpxtrkx:StoppedTime>3065</gpxtrkx:StoppedTime>
        <gpxtrkx:MovingSpeed>0.743</gpxtrkx:MovingSpeed>
        <gpxtrkx:MaxSpeed>1.623</gpxtrkx:MaxSpeed>
        <gpxtrkx:MaxElevation>2036.65</gpxtrkx:MaxElevation>
        <gpxtrkx:MinElevation>1814.236</gpxtrkx:MinElevation>
        <gpxtrkx:Ascent>250</gpxtrkx:Ascent>
        <gpxtrkx:Descent>236.521</gpxtrkx:Descent>
        <gpxtrkx:AvgAscentRate>0.07</gpxtrkx:AvgAscentRate>
        <gpxtrkx:MaxAscentRate>0.542</gpxtrkx:MaxAscentRate>
        <gpxtrkx:AvgDescentRate>0.077</gpxtrkx:AvgDescentRate>
        <gpxtrkx:MaxDescentRate>-0.42</gpxtrkx:MaxDescentRate>
      </gpxtrkx:TrackStatsExtension>
    </extensions>
    <trkseg>
      <trkpt lat="45.838092584162951" lon="7.619043868035078">
        <ele>1826.02</ele>
        <time>2023-02-12T09:30:54Z</time>
      </trkpt>
      <trkpt lat="45.838069785386324" lon="7.619021404534578">
        <ele>1827.03</ele>
        <time>2023-02-12T09:31:13Z</time>
      </trkpt>
      <trkpt lat="45.838067019358277" lon="7.61901562102139">
        <ele>1825.52</ele>
        <time>2023-02-12T09:31:42Z</time>
      </trkpt>
      <trkpt lat="45.838063331320882" lon="7.619027439504862">
        <ele>1823.1199999999999</ele>
        <time>2023-02-12T09:32:12Z</time>
      </trkpt>
      <trkpt lat="45.838076658546925" lon="7.619051914662123">
        <ele>1821.8099999999999</ele>
        <time>2023-02-12T09:32:30Z</time>
      </trkpt>
      <trkpt lat="45.838085543364286" lon="7.619070522487164">
        <ele>1819.8</ele>
        <time>2023-02-12T09:32:52Z</time>
      </trkpt>
      <trkpt lat="45.838096356019378" lon="7.619054680690169">
        <ele>1818.4200000000001</ele>
        <time>2023-02-12T09:33:13Z</time>
      </trkpt>
      <trkpt lat="45.838101888075471" lon="7.61905082501471">
        <ele>1818.3</ele>
        <time>2023-02-12T09:33:17Z</time>
      </trkpt>
      <trkpt lat="45.838132482022047" lon="7.619123999029398">
        <ele>1817.54</ele>
        <time>2023-02-12T09:33:27Z</time>
      </trkpt>
      <trkpt lat="45.838141031563282" lon="7.619162974879146">
        <ele>1817.79</ele>
        <time>2023-02-12T09:33:43Z</time>
      </trkpt>
      <trkpt lat="45.838142540305853" lon="7.619163477793336">
        <ele>1817.21</ele>
        <time>2023-02-12T09:34:11Z</time>
      </trkpt>
      <trkpt lat="45.838143713772297" lon="7.619176637381315">
        <ele>1816.6400000000001</ele>
        <time>2023-02-12T09:34:29Z</time>
      </trkpt>
      <trkpt lat="45.838147485628724" lon="7.61918175034225">
        <ele>1816.3099999999999</ele>
        <time>2023-02-12T09:34:41Z</time>
      </trkpt>
      <trkpt lat="45.838149329647422" lon="7.619281075894833">
        <ele>1816.4200000000001</ele>
        <time>2023-02-12T09:35:02Z</time>
      </trkpt>
      <trkpt lat="45.838156286627054" lon="7.61935131624341">
        <ele>1816.9000000000001</ele>
        <time>2023-02-12T09:35:08Z</time>
      </trkpt>
      <trkpt lat="45.838185623288155" lon="7.619487019255757">
        <ele>1816.22</ele>
        <time>2023-02-12T09:35:19Z</time>
      </trkpt>
      <trkpt lat="45.83824940957129" lon="7.619642084464431">
        <ele>1816.1400000000001</ele>
        <time>2023-02-12T09:35:33Z</time>
      </trkpt>
      <trkpt lat="45.838325684890151" lon="7.61979497037828">
        <ele>1814.98</ele>
        <time>2023-02-12T09:35:47Z</time>
      </trkpt>
      <trkpt lat="45.838329456746578" lon="7.619794886559248">
        <ele>1814.47</ele>
        <time>2023-02-12T09:36:01Z</time>
      </trkpt>
      <trkpt lat="45.838333563879132" lon="7.619795640930533">
        <ele>1814.4300000000001</ele>
        <time>2023-02-12T09:36:02Z</time>
      </trkpt>
      <trkpt lat="45.838352171704173" lon="7.619826905429363">
        <ele>1814.3499999999999</ele>
        <time>2023-02-12T09:36:05Z</time>
      </trkpt>
      <trkpt lat="45.838414281606674" lon="7.620006026700139">
        <ele>1816.1700000000001</ele>
        <time>2023-02-12T09:36:18Z</time>
      </trkpt>
      <trkpt lat="45.838453760370612" lon="7.620161846280098">
        <ele>1818.96</ele>
        <time>2023-02-12T09:36:30Z</time>
      </trkpt>
      <trkpt lat="45.838491981849074" lon="7.620308697223663">
        <ele>1821.8099999999999</ele>
        <time>2023-02-12T09:36:43Z</time>
      </trkpt>
      <trkpt lat="45.838537747040391" lon="7.620459571480751">
        <ele>1823.3399999999999</ele>
        <time>2023-02-12T09:36:56Z</time>
      </trkpt>
      <trkpt lat="45.838598432019353" lon="7.62062662281096">
        <ele>1823.4300000000001</ele>
        <time>2023-02-12T09:37:11Z</time>
      </trkpt>
      <trkpt lat="45.838659200817347" lon="7.62075218372047">
        <ele>1821.4000000000001</ele>
        <time>2023-02-12T09:37:24Z</time>
      </trkpt>
      <trkpt lat="45.83871066570282" lon="7.62087631970644">
        <ele>1821.1199999999999</ele>
        <time>2023-02-12T09:37:38Z</time>
      </trkpt>
      <trkpt lat="45.838768500834703" lon="7.620920827612281">
        <ele>1822.3599999999999</ele>
        <time>2023-02-12T09:37:52Z</time>
      </trkpt>
      <trkpt lat="45.83883916027844" lon="7.620896268635988">
        <ele>1828.79</ele>
        <time>2023-02-12T09:38:10Z</time>
      </trkpt>
      <trkpt lat="45.838904706761241" lon="7.621022583916783">
        <ele>1835.22</ele>
        <time>2023-02-12T09:38:25Z</time>
      </trkpt>
      <trkpt lat="45.838977629318833" lon="7.621143702417612">
        <ele>1838.3</ele>
        <time>2023-02-12T09:38:42Z</time>
      </trkpt>
      <trkpt lat="45.839053150266409" lon="7.621205812320113">
        <ele>1840.98</ele>
        <time>2023-02-12T09:38:56Z</time>
      </trkpt>
      <trkpt lat="45.839120373129845" lon="7.621182510629296">
        <ele>1843.3499999999999</ele>
        <time>2023-02-12T09:39:10Z</time>
      </trkpt>
      <trkpt lat="45.839195223525167" lon="7.621150994673371">
        <ele>1846.26</ele>
        <time>2023-02-12T09:39:27Z</time>
      </trkpt>
      <trkpt lat="45.839263871312141" lon="7.621094500645995">
        <ele>1848.98</ele>
        <time>2023-02-12T09:39:42Z</time>
      </trkpt>
      <trkpt lat="45.839305026456714" lon="7.620957959443331">
        <ele>1850.6500000000001</ele>
        <time>2023-02-12T09:39:58Z</time>
      </trkpt>
      <trkpt lat="45.839333273470402" lon="7.620833739638329">
        <ele>1852.5599999999999</ele>
        <time>2023-02-12T09:40:13Z</time>
      </trkpt>
      <trkpt lat="45.839346684515476" lon="7.62073365971446">
        <ele>1853.1600000000001</ele>
        <time>2023-02-12T09:40:23Z</time>
      </trkpt>
      <trkpt lat="45.83936152048409" lon="7.620516316965222">
        <ele>1853.9300000000001</ele>
        <time>2023-02-12T09:40:39Z</time>
      </trkpt>
      <trkpt lat="45.839387085288763" lon="7.620311295613647">
        <ele>1854.75</ele>
        <time>2023-02-12T09:40:55Z</time>
      </trkpt>
      <trkpt lat="45.839408375322819" lon="7.620107028633356">
        <ele>1855.4300000000001</ele>
        <time>2023-02-12T09:41:09Z</time>
      </trkpt>
      <trkpt lat="45.839445674791932" lon="7.619896559044719">
        <ele>1854.6800000000001</ele>
        <time>2023-02-12T09:41:25Z</time>
      </trkpt>
      <trkpt lat="45.839484147727489" lon="7.619710396975279">
        <ele>1855</ele>
        <time>2023-02-12T09:41:41Z</time>
      </trkpt>
      <trkpt lat="45.839505353942513" lon="7.619617525488138">
        <ele>1855.3</ele>
        <time>2023-02-12T09:41:51Z</time>
      </trkpt>
      <trkpt lat="45.839509880170226" lon="7.619556840509176">
        <ele>1855.3800000000001</ele>
        <time>2023-02-12T09:41:57Z</time>
      </trkpt>
      <trkpt lat="45.839516837149858" lon="7.619516272097826">
        <ele>1854.8599999999999</ele>
        <time>2023-02-12T09:42:00Z</time>
      </trkpt>
      <trkpt lat="45.839521279558539" lon="7.619344945997">
        <ele>1853.8299999999999</ele>
        <time>2023-02-12T09:42:15Z</time>
      </trkpt>
      <trkpt lat="45.839502504095435" lon="7.619312843307853">
        <ele>1853.1700000000001</ele>
        <time>2023-02-12T09:42:21Z</time>
      </trkpt>
      <trkpt lat="45.83949445746839" lon="7.61926238425076">
        <ele>1852.71</ele>
        <time>2023-02-12T09:42:24Z</time>
      </trkpt>
      <trkpt lat="45.839489595964551" lon="7.619017800316215">
        <ele>1852.71</ele>
        <time>2023-02-12T09:42:40Z</time>
      </trkpt>
      <trkpt lat="45.839502420276403" lon="7.618998270481825">
        <ele>1852.9000000000001</ele>
        <time>2023-02-12T09:42:42Z</time>
      </trkpt>
      <trkpt lat="45.839566290378571" lon="7.618856616318226">
        <ele>1853.78</ele>
        <time>2023-02-12T09:42:56Z</time>
      </trkpt>
      <trkpt lat="45.839552627876401" lon="7.618763828650117">
        <ele>1854.98</ele>
        <time>2023-02-12T09:43:09Z</time>
      </trkpt>
      <trkpt lat="45.839540474116802" lon="7.618651846423745">
        <ele>1855.1500000000001</ele>
        <time>2023-02-12T09:43:26Z</time>
      </trkpt>
      <trkpt lat="45.839556399732828" lon="7.618608260527253">
        <ele>1856.3699999999999</ele>
        <time>2023-02-12T09:43:40Z</time>
      </trkpt>
      <trkpt lat="45.839636027812958" lon="7.61864866130054">
        <ele>1857.8299999999999</ele>
        <time>2023-02-12T09:43:52Z</time>
      </trkpt>
      <trkpt lat="45.839741304516792" lon="7.61862569488585">
        <ele>1861.55</ele>
        <time>2023-02-12T09:44:09Z</time>
      </trkpt>
      <trkpt lat="45.839833589270711" lon="7.618565764278173">
        <ele>1864.53</ele>
        <time>2023-02-12T09:44:27Z</time>
      </trkpt>
      <trkpt lat="45.839915731921792" lon="7.618513461202383">
        <ele>1867.72</ele>
        <time>2023-02-12T09:44:43Z</time>
      </trkpt>
      <trkpt lat="45.839939787983894" lon="7.618495607748628">
        <ele>1869.0899999999999</ele>
        <time>2023-02-12T09:44:56Z</time>
      </trkpt>
      <trkpt lat="45.839952696114779" lon="7.618485130369663">
        <ele>1869.6400000000001</ele>
        <time>2023-02-12T09:45:13Z</time>
      </trkpt>
      <trkpt lat="45.839969040825963" lon="7.618466522544622">
        <ele>1870.48</ele>
        <time>2023-02-12T09:45:29Z</time>
      </trkpt>
      <trkpt lat="45.840003155171871" lon="7.61842293664813">
        <ele>1871.96</ele>
        <time>2023-02-12T09:45:40Z</time>
      </trkpt>
      <trkpt lat="45.840042633935809" lon="7.618372058495879">
        <ele>1874.22</ele>
        <time>2023-02-12T09:45:55Z</time>
      </trkpt>
      <trkpt lat="45.84007297642529" lon="7.618297543376684">
        <ele>1876.46</ele>
        <time>2023-02-12T09:46:10Z</time>
      </trkpt>
      <trkpt lat="45.840088231489062" lon="7.618267117068172">
        <ele>1878.1600000000001</ele>
        <time>2023-02-12T09:46:23Z</time>
      </trkpt>
      <trkpt lat="45.840088231489062" lon="7.618236690759659">
        <ele>1878.6199999999999</ele>
        <time>2023-02-12T09:46:39Z</time>
      </trkpt>
      <trkpt lat="45.840086806565523" lon="7.618203246966004">
        <ele>1879.8099999999999</ele>
        <time>2023-02-12T09:46:54Z</time>
      </trkpt>
      <trkpt lat="45.840093847364187" lon="7.618204336613417">
        <ele>1879.8900000000001</ele>
        <time>2023-02-12T09:47:07Z</time>
      </trkpt>
      <trkpt lat="45.840101893991232" lon="7.61819913983345">
        <ele>1881.1400000000001</ele>
        <time>2023-02-12T09:47:54Z</time>
      </trkpt>
      <trkpt lat="45.840102648362517" lon="7.618203163146973">
        <ele>1880.24</ele>
        <time>2023-02-12T09:48:38Z</time>
      </trkpt>
      <trkpt lat="45.840111197903752" lon="7.618205090984702">
        <ele>1879.6600000000001</ele>
        <time>2023-02-12T09:49:15Z</time>
      </trkpt>
      <trkpt lat="45.84010373800993" lon="7.61820400133729">
        <ele>1879.9200000000001</ele>
        <time>2023-02-12T09:49:25Z</time>
      </trkpt>
      <trkpt lat="45.840093260630965" lon="7.618201654404402">
        <ele>1880.1900000000001</ele>
        <time>2023-02-12T09:49:43Z</time>
      </trkpt>
      <trkpt lat="45.840089740231633" lon="7.618203246966004">
        <ele>1880.5899999999999</ele>
        <time>2023-02-12T09:49:57Z</time>
      </trkpt>
      <trkpt lat="45.84009644575417" lon="7.618211125954986">
        <ele>1880.4000000000001</ele>
        <time>2023-02-12T09:50:11Z</time>
      </trkpt>
      <trkpt lat="45.840094098821282" lon="7.618217328563333">
        <ele>1880.48</ele>
        <time>2023-02-12T09:50:24Z</time>
      </trkpt>
      <trkpt lat="45.84009200334549" lon="7.618210455402732">
        <ele>1880.8399999999999</ele>
        <time>2023-02-12T09:50:45Z</time>
      </trkpt>
      <trkpt lat="45.840094434097409" lon="7.618207521736622">
        <ele>1880.8599999999999</ele>
        <time>2023-02-12T09:51:12Z</time>
      </trkpt>
      <trkpt lat="45.840092254802585" lon="7.618206264451146">
        <ele>1880.5</ele>
        <time>2023-02-12T09:51:35Z</time>
      </trkpt>
      <trkpt lat="45.840109521523118" lon="7.61817567050457">
        <ele>1880.97</ele>
        <time>2023-02-12T09:51:50Z</time>
      </trkpt>
      <trkpt lat="45.840155202895403" lon="7.618088917806745">
        <ele>1882.54</ele>
        <time>2023-02-12T09:52:04Z</time>
      </trkpt>
      <trkpt lat="45.840203817933798" lon="7.618012223392725">
        <ele>1884.24</ele>
        <time>2023-02-12T09:52:17Z</time>
      </trkpt>
      <trkpt lat="45.840231059119105" lon="7.617915077134967">
        <ele>1886.03</ele>
        <time>2023-02-12T09:52:31Z</time>
      </trkpt>
      <trkpt lat="45.840261401608586" lon="7.617800831794739">
        <ele>1888.76</ele>
        <time>2023-02-12T09:52:45Z</time>
      </trkpt>
      <trkpt lat="45.840288726612926" lon="7.617671666666865">
        <ele>1891</ele>
        <time>2023-02-12T09:53:01Z</time>
      </trkpt>
      <trkpt lat="45.840294007211924" lon="7.61755021288991">
        <ele>1892.55</ele>
        <time>2023-02-12T09:53:16Z</time>
      </trkpt>
      <trkpt lat="45.840300126001239" lon="7.617436638101935">
        <ele>1894.74</ele>
        <time>2023-02-12T09:53:31Z</time>
      </trkpt>
      <trkpt lat="45.840289397165179" lon="7.617301773279905">
        <ele>1896.5699999999999</ele>
        <time>2023-02-12T09:53:47Z</time>
      </trkpt>
      <trkpt lat="45.840343041345477" lon="7.617224827408791">
        <ele>1898.01</ele>
        <time>2023-02-12T09:54:01Z</time>
      </trkpt>
      <trkpt lat="45.840385789051652" lon="7.617199430242181">
        <ele>1898.3599999999999</ele>
        <time>2023-02-12T09:54:14Z</time>
      </trkpt>
      <trkpt lat="45.840411270037293" lon="7.617216277867556">
        <ele>1899.25</ele>
        <time>2023-02-12T09:54:25Z</time>
      </trkpt>
      <trkpt lat="45.840452928096056" lon="7.61721552349627">
        <ele>1900.3199999999999</ele>
        <time>2023-02-12T09:54:37Z</time>
      </trkpt>
      <trkpt lat="45.840484276413918" lon="7.617227090522647">
        <ele>1900.47</ele>
        <time>2023-02-12T09:54:48Z</time>
      </trkpt>
      <trkpt lat="45.840523336082697" lon="7.617266569286585">
        <ele>1900.79</ele>
        <time>2023-02-12T09:55:04Z</time>
      </trkpt>
      <trkpt lat="45.840562898665667" lon="7.617325996980071">
        <ele>1900.6800000000001</ele>
        <time>2023-02-12T09:55:16Z</time>
      </trkpt>
      <trkpt lat="45.840633390471339" lon="7.617394393309951">
        <ele>1898.9200000000001</ele>
        <time>2023-02-12T09:55:31Z</time>
      </trkpt>
      <trkpt lat="45.840662643313408" lon="7.617453904822469">
        <ele>1898.27</ele>
        <time>2023-02-12T09:55:41Z</time>
      </trkpt>
      <trkpt lat="45.840731961652637" lon="7.617510817945004">
        <ele>1898.54</ele>
        <time>2023-02-12T09:55:53Z</time>
      </trkpt>
      <trkpt lat="45.84079809486866" lon="7.617564294487238">
        <ele>1898.8099999999999</ele>
        <time>2023-02-12T09:56:06Z</time>
      </trkpt>
      <trkpt lat="45.840871687978506" lon="7.617623805999756">
        <ele>1899.3699999999999</ele>
        <time>2023-02-12T09:56:20Z</time>
      </trkpt>
      <trkpt lat="45.840951483696699" lon="7.617640905082226">
        <ele>1901.6900000000001</ele>
        <time>2023-02-12T09:56:39Z</time>
      </trkpt>
      <trkpt lat="45.840993644669652" lon="7.617597067728639">
        <ele>1902.99</ele>
        <time>2023-02-12T09:56:52Z</time>
      </trkpt>
      <trkpt lat="45.841052317991853" lon="7.617595307528973">
        <ele>1905.01</ele>
        <time>2023-02-12T09:57:05Z</time>
      </trkpt>
      <trkpt lat="45.841108644381166" lon="7.617623638361692">
        <ele>1906.98</ele>
        <time>2023-02-12T09:57:20Z</time>
      </trkpt>
      <trkpt lat="45.841157343238592" lon="7.61763621121645">
        <ele>1908.3499999999999</ele>
        <time>2023-02-12T09:57:34Z</time>
      </trkpt>
      <trkpt lat="45.841196486726403" lon="7.617620034143329">
        <ele>1909.3399999999999</ele>
        <time>2023-02-12T09:57:50Z</time>
      </trkpt>
      <trkpt lat="45.841230852529407" lon="7.617636127397418">
        <ele>1910.1800000000001</ele>
        <time>2023-02-12T09:58:04Z</time>
      </trkpt>
      <trkpt lat="45.841273432597518" lon="7.61764207854867">
        <ele>1911.9400000000001</ele>
        <time>2023-02-12T09:58:17Z</time>
      </trkpt>
      <trkpt lat="45.841308636590838" lon="7.617710391059518">
        <ele>1912.5</ele>
        <time>2023-02-12T09:58:32Z</time>
      </trkpt>
      <trkpt lat="45.841346103698015" lon="7.61775691062212">
        <ele>1911.01</ele>
        <time>2023-02-12T09:58:42Z</time>
      </trkpt>
      <trkpt lat="45.84136001765728" lon="7.61785514652729">
        <ele>1909.7</ele>
        <time>2023-02-12T09:58:54Z</time>
      </trkpt>
      <trkpt lat="45.841395556926727" lon="7.617903342470527">
        <ele>1909.6099999999999</ele>
        <time>2023-02-12T09:59:05Z</time>
      </trkpt>
      <trkpt lat="45.841452721506357" lon="7.617979785427451">
        <ele>1910.97</ele>
        <time>2023-02-12T09:59:18Z</time>
      </trkpt>
      <trkpt lat="45.841550538316369" lon="7.618000488728285">
        <ele>1912.8</ele>
        <time>2023-02-12T09:59:34Z</time>
      </trkpt>
      <trkpt lat="45.841550370678306" lon="7.618001662194729">
        <ele>1913.52</ele>
        <time>2023-02-12T09:59:47Z</time>
      </trkpt>
      <trkpt lat="45.841551208868623" lon="7.618008870631456">
        <ele>1914.7</ele>
        <time>2023-02-12T10:00:01Z</time>
      </trkpt>
      <trkpt lat="45.841551041230559" lon="7.618010966107249">
        <ele>1914.72</ele>
        <time>2023-02-12T10:00:18Z</time>
      </trkpt>
      <trkpt lat="45.841553807258606" lon="7.618007445707917">
        <ele>1915.05</ele>
        <time>2023-02-12T10:00:33Z</time>
      </trkpt>
      <trkpt lat="45.841560596600175" lon="7.618000572547317">
        <ele>1915.3800000000001</ele>
        <time>2023-02-12T10:00:53Z</time>
      </trkpt>
      <trkpt lat="45.84163854829967" lon="7.618081709370017">
        <ele>1915.45</ele>
        <time>2023-02-12T10:01:07Z</time>
      </trkpt>
      <trkpt lat="45.841711219400167" lon="7.618135185912252">
        <ele>1915.1199999999999</ele>
        <time>2023-02-12T10:01:20Z</time>
      </trkpt>
      <trkpt lat="45.841772155836225" lon="7.61814733967185">
        <ele>1914.8800000000001</ele>
        <time>2023-02-12T10:01:39Z</time>
      </trkpt>
      <trkpt lat="45.841779364272952" lon="7.61815027333796">
        <ele>1914.9100000000001</ele>
        <time>2023-02-12T10:01:40Z</time>
      </trkpt>
      <trkpt lat="45.841873493045568" lon="7.618203666061163">
        <ele>1916.1900000000001</ele>
        <time>2023-02-12T10:01:55Z</time>
      </trkpt>
      <trkpt lat="45.841949433088303" lon="7.618222022429109">
        <ele>1917.48</ele>
        <time>2023-02-12T10:02:09Z</time>
      </trkpt>
      <trkpt lat="45.842012381181121" lon="7.618244653567672">
        <ele>1917.98</ele>
        <time>2023-02-12T10:02:21Z</time>
      </trkpt>
      <trkpt lat="45.84203920327127" lon="7.618325371295214">
        <ele>1918.03</ele>
        <time>2023-02-12T10:02:36Z</time>
      </trkpt>
      <trkpt lat="45.842055547982454" lon="7.61839846149087">
        <ele>1919.74</ele>
        <time>2023-02-12T10:02:49Z</time>
      </trkpt>
      <trkpt lat="45.84208320826292" lon="7.618482280522585">
        <ele>1921.5899999999999</ele>
        <time>2023-02-12T10:03:05Z</time>
      </trkpt>
      <trkpt lat="45.842165602371097" lon="7.618584791198373">
        <ele>1922.8299999999999</ele>
        <time>2023-02-12T10:03:24Z</time>
      </trkpt>
      <trkpt lat="45.842202650383115" lon="7.618669699877501">
        <ele>1923.9300000000001</ele>
        <time>2023-02-12T10:03:38Z</time>
      </trkpt>
      <trkpt lat="45.842253779992461" lon="7.618763158097863">
        <ele>1925.4200000000001</ele>
        <time>2023-02-12T10:03:54Z</time>
      </trkpt>
      <trkpt lat="45.842303819954395" lon="7.618854437023401">
        <ele>1927.1199999999999</ele>
        <time>2023-02-12T10:04:10Z</time>
      </trkpt>
      <trkpt lat="45.842355536296964" lon="7.618943955749273">
        <ele>1928.6300000000001</ele>
        <time>2023-02-12T10:04:24Z</time>
      </trkpt>
      <trkpt lat="45.842401552945375" lon="7.619041269645095">
        <ele>1930.2</ele>
        <time>2023-02-12T10:04:39Z</time>
      </trkpt>
      <trkpt lat="45.842483025044203" lon="7.619118299335241">
        <ele>1931.7</ele>
        <time>2023-02-12T10:04:55Z</time>
      </trkpt>
      <trkpt lat="45.84253566339612" lon="7.619213601574302">
        <ele>1932.29</ele>
        <time>2023-02-12T10:05:10Z</time>
      </trkpt>
      <trkpt lat="45.842622667551041" lon="7.619315190240741">
        <ele>1933.1500000000001</ele>
        <time>2023-02-12T10:05:28Z</time>
      </trkpt>
      <trkpt lat="45.842687459662557" lon="7.619408061727881">
        <ele>1935.9000000000001</ele>
        <time>2023-02-12T10:05:46Z</time>
      </trkpt>
      <trkpt lat="45.842746216803789" lon="7.619485426694155">
        <ele>1937.6800000000001</ele>
        <time>2023-02-12T10:06:01Z</time>
      </trkpt>
      <trkpt lat="45.84276138804853" lon="7.61951208114624">
        <ele>1938.53</ele>
        <time>2023-02-12T10:06:16Z</time>
      </trkpt>
      <trkpt lat="45.842793490737677" lon="7.619565976783633">
        <ele>1939.8499999999999</ele>
        <time>2023-02-12T10:06:31Z</time>
      </trkpt>
      <trkpt lat="45.842851409688592" lon="7.619652645662427">
        <ele>1941.72</ele>
        <time>2023-02-12T10:06:46Z</time>
      </trkpt>
      <trkpt lat="45.842900862917304" lon="7.619711486622691">
        <ele>1944.04</ele>
        <time>2023-02-12T10:07:01Z</time>
      </trkpt>
      <trkpt lat="45.842985352501273" lon="7.619730262085795">
        <ele>1945.1900000000001</ele>
        <time>2023-02-12T10:07:17Z</time>
      </trkpt>
      <trkpt lat="45.843065567314625" lon="7.619750211015344">
        <ele>1946.53</ele>
        <time>2023-02-12T10:07:32Z</time>
      </trkpt>
      <trkpt lat="45.843147290870547" lon="7.61979010887444">
        <ele>1948.6099999999999</ele>
        <time>2023-02-12T10:07:48Z</time>
      </trkpt>
      <trkpt lat="45.843145614489913" lon="7.619857667014003">
        <ele>1949.74</ele>
        <time>2023-02-12T10:08:00Z</time>
      </trkpt>
      <trkpt lat="45.843173274770379" lon="7.619927655905485">
        <ele>1950.7</ele>
        <time>2023-02-12T10:08:14Z</time>
      </trkpt>
      <trkpt lat="45.843237983062863" lon="7.619978953152895">
        <ele>1951.73</ele>
        <time>2023-02-12T10:08:28Z</time>
      </trkpt>
      <trkpt lat="45.843303613364697" lon="7.620008960366249">
        <ele>1953.5</ele>
        <time>2023-02-12T10:08:43Z</time>
      </trkpt>
      <trkpt lat="45.843360191211104" lon="7.619986832141876">
        <ele>1952.8</ele>
        <time>2023-02-12T10:08:58Z</time>
      </trkpt>
      <trkpt lat="45.843354575335979" lon="7.619977947324514">
        <ele>1953.05</ele>
        <time>2023-02-12T10:09:11Z</time>
      </trkpt>
      <trkpt lat="45.843357173725963" lon="7.620001919567585">
        <ele>1953.79</ele>
        <time>2023-02-12T10:09:31Z</time>
      </trkpt>
      <trkpt lat="45.843335129320621" lon="7.620031675323844">
        <ele>1953.9000000000001</ele>
        <time>2023-02-12T10:09:54Z</time>
      </trkpt>
      <trkpt lat="45.843327501788735" lon="7.620008289813995">
        <ele>1954.1500000000001</ele>
        <time>2023-02-12T10:10:10Z</time>
      </trkpt>
      <trkpt lat="45.843321718275547" lon="7.62000409886241">
        <ele>1953.0799999999999</ele>
        <time>2023-02-12T10:10:29Z</time>
      </trkpt>
      <trkpt lat="45.843328675255179" lon="7.620034357532859">
        <ele>1954.2</ele>
        <time>2023-02-12T10:10:52Z</time>
      </trkpt>
      <trkpt lat="45.843339236453176" lon="7.619968894869089">
        <ele>1957.8900000000001</ele>
        <time>2023-02-12T10:11:31Z</time>
      </trkpt>
      <trkpt lat="45.843335967510939" lon="7.619968894869089">
        <ele>1959.25</ele>
        <time>2023-02-12T10:12:14Z</time>
      </trkpt>
      <trkpt lat="45.843342505395412" lon="7.619990101084113">
        <ele>1959.05</ele>
        <time>2023-02-12T10:12:31Z</time>
      </trkpt>
      <trkpt lat="45.843328926712275" lon="7.620031759142876">
        <ele>1958.8800000000001</ele>
        <time>2023-02-12T10:12:51Z</time>
      </trkpt>
      <trkpt lat="45.843329932540655" lon="7.620026394724846">
        <ele>1958.1199999999999</ele>
        <time>2023-02-12T10:13:12Z</time>
      </trkpt>
      <trkpt lat="45.843320796266198" lon="7.62004416435957">
        <ele>1958.25</ele>
        <time>2023-02-12T10:13:33Z</time>
      </trkpt>
      <trkpt lat="45.843289867043495" lon="7.620083140209317">
        <ele>1959.27</ele>
        <time>2023-02-12T10:13:48Z</time>
      </trkpt>
      <trkpt lat="45.843284334987402" lon="7.620066376402974">
        <ele>1958.0899999999999</ele>
        <time>2023-02-12T10:14:02Z</time>
      </trkpt>
      <trkpt lat="45.843288190662861" lon="7.620048858225346">
        <ele>1957.4000000000001</ele>
        <time>2023-02-12T10:14:18Z</time>
      </trkpt>
      <trkpt lat="45.843285340815783" lon="7.620084481313825">
        <ele>1957.9000000000001</ele>
        <time>2023-02-12T10:14:28Z</time>
      </trkpt>
      <trkpt lat="45.843297829851508" lon="7.620080793276429">
        <ele>1957.73</ele>
        <time>2023-02-12T10:14:49Z</time>
      </trkpt>
      <trkpt lat="45.843291878700256" lon="7.620045254006982">
        <ele>1957.8299999999999</ele>
        <time>2023-02-12T10:15:20Z</time>
      </trkpt>
      <trkpt lat="45.843292465433478" lon="7.620200319215655">
        <ele>1956.9200000000001</ele>
        <time>2023-02-12T10:15:35Z</time>
      </trkpt>
      <trkpt lat="45.84333311766386" lon="7.620292603969574">
        <ele>1956.0599999999999</ele>
        <time>2023-02-12T10:15:47Z</time>
      </trkpt>
      <trkpt lat="45.843376619741321" lon="7.620346499606967">
        <ele>1958.4000000000001</ele>
        <time>2023-02-12T10:16:02Z</time>
      </trkpt>
      <trkpt lat="45.84341861307621" lon="7.620383463799954">
        <ele>1959.5599999999999</ele>
        <time>2023-02-12T10:16:14Z</time>
      </trkpt>
      <trkpt lat="45.843385839834809" lon="7.620512545108795">
        <ele>1961.8800000000001</ele>
        <time>2023-02-12T10:16:28Z</time>
      </trkpt>
      <trkpt lat="45.843405369669199" lon="7.620569877326489">
        <ele>1964.5999999999999</ele>
        <time>2023-02-12T10:16:41Z</time>
      </trkpt>
      <trkpt lat="45.843396652489901" lon="7.620653780177236">
        <ele>1966.8</ele>
        <time>2023-02-12T10:16:54Z</time>
      </trkpt>
      <trkpt lat="45.843393970280886" lon="7.620752854272723">
        <ele>1969.25</ele>
        <time>2023-02-12T10:17:08Z</time>
      </trkpt>
      <trkpt lat="45.843419786542654" lon="7.620817059651017">
        <ele>1971.45</ele>
        <time>2023-02-12T10:17:25Z</time>
      </trkpt>
      <trkpt lat="45.843462031334639" lon="7.620865507051349">
        <ele>1972.6600000000001</ele>
        <time>2023-02-12T10:17:40Z</time>
      </trkpt>
      <trkpt lat="45.843484411016107" lon="7.62091688811779">
        <ele>1973.4000000000001</ele>
        <time>2023-02-12T10:17:54Z</time>
      </trkpt>
      <trkpt lat="45.843470748513937" lon="7.620980422943831">
        <ele>1973.9100000000001</ele>
        <time>2023-02-12T10:18:09Z</time>
      </trkpt>
      <trkpt lat="45.843498911708593" lon="7.621027613058686">
        <ele>1975.6099999999999</ele>
        <time>2023-02-12T10:18:25Z</time>
      </trkpt>
      <trkpt lat="45.843525985255837" lon="7.621070947498083">
        <ele>1977.55</ele>
        <time>2023-02-12T10:18:41Z</time>
      </trkpt>
      <trkpt lat="45.843543335795403" lon="7.621109755709767">
        <ele>1978.6700000000001</ele>
        <time>2023-02-12T10:18:54Z</time>
      </trkpt>
      <trkpt lat="45.843549370765686" lon="7.621155269443989">
        <ele>1980.24</ele>
        <time>2023-02-12T10:19:07Z</time>
      </trkpt>
      <trkpt lat="45.843566134572029" lon="7.621198268607259">
        <ele>1980.8699999999999</ele>
        <time>2023-02-12T10:19:19Z</time>
      </trkpt>
      <trkpt lat="45.843583904206753" lon="7.621242273598909">
        <ele>1982.95</ele>
        <time>2023-02-12T10:19:33Z</time>
      </trkpt>
      <trkpt lat="45.843590442091227" lon="7.621280578896403">
        <ele>1984.2</ele>
        <time>2023-02-12T10:19:46Z</time>
      </trkpt>
      <trkpt lat="45.843608798459172" lon="7.621341766789556">
        <ele>1984.04</ele>
        <time>2023-02-12T10:20:00Z</time>
      </trkpt>
      <trkpt lat="45.843632603064179" lon="7.62138987891376">
        <ele>1984.0999999999999</ele>
        <time>2023-02-12T10:20:14Z</time>
      </trkpt>
      <trkpt lat="45.843681888654828" lon="7.62144167907536">
        <ele>1989.03</ele>
        <time>2023-02-12T10:20:29Z</time>
      </trkpt>
      <trkpt lat="45.843709213659167" lon="7.621495239436626">
        <ele>1991.99</ele>
        <time>2023-02-12T10:20:40Z</time>
      </trkpt>
      <trkpt lat="45.843733521178365" lon="7.621555337682366">
        <ele>1994.3299999999999</ele>
        <time>2023-02-12T10:20:55Z</time>
      </trkpt>
      <trkpt lat="45.843749530613422" lon="7.621624656021595">
        <ele>1995.6800000000001</ele>
        <time>2023-02-12T10:21:10Z</time>
      </trkpt>
      <trkpt lat="45.843745339661837" lon="7.62171040289104">
        <ele>1998.9300000000001</ele>
        <time>2023-02-12T10:21:24Z</time>
      </trkpt>
      <trkpt lat="45.843774592503905" lon="7.621763627976179">
        <ele>2002.54</ele>
        <time>2023-02-12T10:21:38Z</time>
      </trkpt>
      <trkpt lat="45.843803510069847" lon="7.621789863333106">
        <ele>2005.3499999999999</ele>
        <time>2023-02-12T10:21:49Z</time>
      </trkpt>
      <trkpt lat="45.843843324109912" lon="7.621811823919416">
        <ele>2007.6099999999999</ele>
        <time>2023-02-12T10:22:00Z</time>
      </trkpt>
      <trkpt lat="45.843881713226438" lon="7.621811404824257">
        <ele>2010.45</ele>
        <time>2023-02-12T10:22:11Z</time>
      </trkpt>
      <trkpt lat="45.84394876845181" lon="7.621902180835605">
        <ele>2015.51</ele>
        <time>2023-02-12T10:22:29Z</time>
      </trkpt>
      <trkpt lat="45.844004424288869" lon="7.621941911056638">
        <ele>2018.0899999999999</ele>
        <time>2023-02-12T10:22:45Z</time>
      </trkpt>
      <trkpt lat="45.844059158116579" lon="7.621886674314737">
        <ele>2020.6900000000001</ele>
        <time>2023-02-12T10:23:00Z</time>
      </trkpt>
      <trkpt lat="45.844130655750632" lon="7.62184870429337">
        <ele>2022.6300000000001</ele>
        <time>2023-02-12T10:23:15Z</time>
      </trkpt>
      <trkpt lat="45.844193771481514" lon="7.621823390945792">
        <ele>2023.6199999999999</ele>
        <time>2023-02-12T10:23:29Z</time>
      </trkpt>
      <trkpt lat="45.844249846413732" lon="7.621850296854973">
        <ele>2025.0599999999999</ele>
        <time>2023-02-12T10:23:44Z</time>
      </trkpt>
      <trkpt lat="45.844314973801374" lon="7.621842753142119">
        <ele>2025.7</ele>
        <time>2023-02-12T10:23:57Z</time>
      </trkpt>
      <trkpt lat="45.844353027641773" lon="7.62182230129838">
        <ele>2025.8399999999999</ele>
        <time>2023-02-12T10:24:10Z</time>
      </trkpt>
      <trkpt lat="45.844356631860137" lon="7.621802184730768">
        <ele>2026.48</ele>
        <time>2023-02-12T10:24:23Z</time>
      </trkpt>
      <trkpt lat="45.844349255785346" lon="7.621815009042621">
        <ele>2027.3900000000001</ele>
        <time>2023-02-12T10:24:40Z</time>
      </trkpt>
      <trkpt lat="45.844341460615396" lon="7.621848620474339">
        <ele>2030.24</ele>
        <time>2023-02-12T10:25:34Z</time>
      </trkpt>
      <trkpt lat="45.844343136996031" lon="7.621840490028262">
        <ele>2031.25</ele>
        <time>2023-02-12T10:25:53Z</time>
      </trkpt>
      <trkpt lat="45.844363672658801" lon="7.621819199994206">
        <ele>2031.76</ele>
        <time>2023-02-12T10:26:15Z</time>
      </trkpt>
      <trkpt lat="45.844366690143943" lon="7.621816182509065">
        <ele>2031.9000000000001</ele>
        <time>2023-02-12T10:26:30Z</time>
      </trkpt>
      <trkpt lat="45.844360236078501" lon="7.621828923001885">
        <ele>2031.8099999999999</ele>
        <time>2023-02-12T10:27:01Z</time>
      </trkpt>
      <trkpt lat="45.844354117289186" lon="7.62182523496449">
        <ele>2030.8800000000001</ele>
        <time>2023-02-12T10:27:47Z</time>
      </trkpt>
      <trkpt lat="45.844369120895863" lon="7.621840490028262">
        <ele>2033.78</ele>
        <time>2023-02-12T10:28:37Z</time>
      </trkpt>
      <trkpt lat="45.844356464222074" lon="7.621864294633269">
        <ele>2034.0899999999999</ele>
        <time>2023-02-12T10:29:26Z</time>
      </trkpt>
      <trkpt lat="45.844346238300204" lon="7.621840992942452">
        <ele>2034.8299999999999</ele>
        <time>2023-02-12T10:30:14Z</time>
      </trkpt>
      <trkpt lat="45.844347244128585" lon="7.621867144480348">
        <ele>2036.8599999999999</ele>
        <time>2023-02-12T10:31:00Z</time>
      </trkpt>
      <trkpt lat="45.84427515976131" lon="7.62159607373178">
        <ele>2008.6800000000001</ele>
        <time>2023-02-12T13:18:42Z</time>
      </trkpt>
      <trkpt lat="45.844237525016069" lon="7.621557600796223">
        <ele>2018.8599999999999</ele>
        <time>2023-02-12T13:18:55Z</time>
      </trkpt>
      <trkpt lat="45.8442722260952" lon="7.62159657664597">
        <ele>2018.9400000000001</ele>
        <time>2023-02-12T13:19:18Z</time>
      </trkpt>
      <trkpt lat="45.844268286600709" lon="7.621634798124433">
        <ele>2017.4300000000001</ele>
        <time>2023-02-12T13:19:43Z</time>
      </trkpt>
      <trkpt lat="45.84427373483777" lon="7.621609903872013">
        <ele>2013.6199999999999</ele>
        <time>2023-02-12T13:20:25Z</time>
      </trkpt>
      <trkpt lat="45.84427809342742" lon="7.621585931628943">
        <ele>2015.3099999999999</ele>
        <time>2023-02-12T13:21:14Z</time>
      </trkpt>
      <trkpt lat="45.844254372641444" lon="7.621617782860994">
        <ele>2018.8900000000001</ele>
        <time>2023-02-12T13:22:05Z</time>
      </trkpt>
      <trkpt lat="45.844262838363647" lon="7.621635552495718">
        <ele>2017.1300000000001</ele>
        <time>2023-02-12T13:22:44Z</time>
      </trkpt>
      <trkpt lat="45.84426149725914" lon="7.621620465070009">
        <ele>2017.75</ele>
        <time>2023-02-12T13:23:30Z</time>
      </trkpt>
      <trkpt lat="45.844265017658472" lon="7.621606048196554">
        <ele>2018.0699999999999</ele>
        <time>2023-02-12T13:24:18Z</time>
      </trkpt>
      <trkpt lat="45.844259820878506" lon="7.62161610648036">
        <ele>2018.78</ele>
        <time>2023-02-12T13:25:03Z</time>
      </trkpt>
      <trkpt lat="45.844231992959976" lon="7.621580651029944">
        <ele>2019.03</ele>
        <time>2023-02-12T13:25:50Z</time>
      </trkpt>
      <trkpt lat="45.844231406226754" lon="7.621620045974851">
        <ele>2017.27</ele>
        <time>2023-02-12T13:26:37Z</time>
      </trkpt>
      <trkpt lat="45.844264850020409" lon="7.621641419827938">
        <ele>2019.0999999999999</ele>
        <time>2023-02-12T13:27:29Z</time>
      </trkpt>
      <trkpt lat="45.844287732616067" lon="7.621639911085367">
        <ele>2017</ele>
        <time>2023-02-12T13:28:24Z</time>
      </trkpt>
      <trkpt lat="45.844270968809724" lon="7.621603198349476">
        <ele>2013.8299999999999</ele>
        <time>2023-02-12T13:29:16Z</time>
      </trkpt>
      <trkpt lat="45.844301395118237" lon="7.621601605787873">
        <ele>2011.95</ele>
        <time>2023-02-12T13:30:02Z</time>
      </trkpt>
      <trkpt lat="45.844288906082511" lon="7.621660949662328">
        <ele>2012.3499999999999</ele>
        <time>2023-02-12T13:30:46Z</time>
      </trkpt>
      <trkpt lat="45.844293516129255" lon="7.621649131178856">
        <ele>2014.7</ele>
        <time>2023-02-12T13:31:33Z</time>
      </trkpt>
      <trkpt lat="45.844284296035767" lon="7.621602276340127">
        <ele>2014.5899999999999</ele>
        <time>2023-02-12T13:32:20Z</time>
      </trkpt>
      <trkpt lat="45.844282619655132" lon="7.621563384309411">
        <ele>2016.3199999999999</ele>
        <time>2023-02-12T13:33:06Z</time>
      </trkpt>
      <trkpt lat="45.844250097870827" lon="7.621617866680026">
        <ele>2019.1900000000001</ele>
        <time>2023-02-12T13:33:43Z</time>
      </trkpt>
      <trkpt lat="45.844269711524248" lon="7.621617028489709">
        <ele>2019.6800000000001</ele>
        <time>2023-02-12T13:34:23Z</time>
      </trkpt>
      <trkpt lat="45.84425613284111" lon="7.621599677950144">
        <ele>2018.3900000000001</ele>
        <time>2023-02-12T13:35:00Z</time>
      </trkpt>
      <trkpt lat="45.844255043193698" lon="7.621582914143801">
        <ele>2018.29</ele>
        <time>2023-02-12T13:35:15Z</time>
      </trkpt>
      <trkpt lat="45.844269711524248" lon="7.621562797576189">
        <ele>2018.72</ele>
        <time>2023-02-12T13:35:50Z</time>
      </trkpt>
      <trkpt lat="45.844268035143614" lon="7.621551482006908">
        <ele>2019.0899999999999</ele>
        <time>2023-02-12T13:36:14Z</time>
      </trkpt>
      <trkpt lat="45.844250433146954" lon="7.621540250256658">
        <ele>2020.0799999999999</ele>
        <time>2023-02-12T13:36:32Z</time>
      </trkpt>
      <trkpt lat="45.844260323792696" lon="7.621547291055322">
        <ele>2019.9200000000001</ele>
        <time>2023-02-12T13:36:49Z</time>
      </trkpt>
      <trkpt lat="45.844269879162312" lon="7.621566234156489">
        <ele>2020.8</ele>
        <time>2023-02-12T13:37:08Z</time>
      </trkpt>
      <trkpt lat="45.844287564978004" lon="7.621538154780865">
        <ele>2021.6800000000001</ele>
        <time>2023-02-12T13:37:24Z</time>
      </trkpt>
      <trkpt lat="45.844286978244781" lon="7.621502447873354">
        <ele>2022.9200000000001</ele>
        <time>2023-02-12T13:37:38Z</time>
      </trkpt>
      <trkpt lat="45.844298042356968" lon="7.621551901102066">
        <ele>2023.28</ele>
        <time>2023-02-12T13:37:56Z</time>
      </trkpt>
      <trkpt lat="45.844309106469154" lon="7.621561121195555">
        <ele>2024.23</ele>
        <time>2023-02-12T13:38:16Z</time>
      </trkpt>
      <trkpt lat="45.8443015627563" lon="7.621563635766506">
        <ele>2026.3800000000001</ele>
        <time>2023-02-12T13:38:43Z</time>
      </trkpt>
      <trkpt lat="45.844306424260139" lon="7.621569419279695">
        <ele>2026.03</ele>
        <time>2023-02-12T13:39:08Z</time>
      </trkpt>
      <trkpt lat="45.844287984073162" lon="7.621571514755487">
        <ele>2027</ele>
        <time>2023-02-12T13:39:25Z</time>
      </trkpt>
      <trkpt lat="45.844285385683179" lon="7.621570006012917">
        <ele>2026.5799999999999</ele>
        <time>2023-02-12T13:39:47Z</time>
      </trkpt>
      <trkpt lat="45.844280356541276" lon="7.621581153944135">
        <ele>2027.24</ele>
        <time>2023-02-12T13:40:08Z</time>
      </trkpt>
      <trkpt lat="45.844293013215065" lon="7.621552487835288">
        <ele>2028.9200000000001</ele>
        <time>2023-02-12T13:40:27Z</time>
      </trkpt>
      <trkpt lat="45.844329558312893" lon="7.621601941064">
        <ele>2029.22</ele>
        <time>2023-02-12T13:40:42Z</time>
      </trkpt>
      <trkpt lat="45.844379514455795" lon="7.62159364297986">
        <ele>2029.3099999999999</ele>
        <time>2023-02-12T13:40:58Z</time>
      </trkpt>
      <trkpt lat="45.844364427030087" lon="7.621579896658659">
        <ele>2028.6400000000001</ele>
        <time>2023-02-12T13:41:10Z</time>
      </trkpt>
      <trkpt lat="45.844345232471824" lon="7.621595235541463">
        <ele>2028</ele>
        <time>2023-02-12T13:41:24Z</time>
      </trkpt>
      <trkpt lat="45.844387644901872" lon="7.621616777032614">
        <ele>2027.8</ele>
        <time>2023-02-12T13:41:38Z</time>
      </trkpt>
      <trkpt lat="45.844426034018397" lon="7.621674193069339">
        <ele>2027.21</ele>
        <time>2023-02-12T13:41:53Z</time>
      </trkpt>
      <trkpt lat="45.844531562179327" lon="7.621726496145129">
        <ele>2025.3599999999999</ele>
        <time>2023-02-12T13:42:06Z</time>
      </trkpt>
      <trkpt lat="45.844631642103195" lon="7.621771674603224">
        <ele>2023.28</ele>
        <time>2023-02-12T13:42:18Z</time>
      </trkpt>
      <trkpt lat="45.844598617404699" lon="7.621899833902717">
        <ele>2021.95</ele>
        <time>2023-02-12T13:42:32Z</time>
      </trkpt>
      <trkpt lat="45.844598365947604" lon="7.621962111443281">
        <ele>2020.95</ele>
        <time>2023-02-12T13:42:43Z</time>
      </trkpt>
      <trkpt lat="45.844615129753947" lon="7.621839819476008">
        <ele>2020.27</ele>
        <time>2023-02-12T13:42:57Z</time>
      </trkpt>
      <trkpt lat="45.844619739800692" lon="7.621741332113743">
        <ele>2019.9100000000001</ele>
        <time>2023-02-12T13:43:11Z</time>
      </trkpt>
      <trkpt lat="45.844609849154949" lon="7.621837640181184">
        <ele>2018.04</ele>
        <time>2023-02-12T13:43:23Z</time>
      </trkpt>
      <trkpt lat="45.844604233279824" lon="7.621910395100713">
        <ele>2017.3900000000001</ele>
        <time>2023-02-12T13:43:29Z</time>
      </trkpt>
      <trkpt lat="45.844590151682496" lon="7.622034111991525">
        <ele>2017.4400000000001</ele>
        <time>2023-02-12T13:43:42Z</time>
      </trkpt>
      <trkpt lat="45.844601131975651" lon="7.622106447815895">
        <ele>2017.7</ele>
        <time>2023-02-12T13:43:51Z</time>
      </trkpt>
      <trkpt lat="45.844609346240759" lon="7.622177861630917">
        <ele>2016.99</ele>
        <time>2023-02-12T13:43:58Z</time>
      </trkpt>
      <trkpt lat="45.844619069248438" lon="7.622352037578821">
        <ele>2017.48</ele>
        <time>2023-02-12T13:44:12Z</time>
      </trkpt>
      <trkpt lat="45.844617895781994" lon="7.622491177171469">
        <ele>2019.6500000000001</ele>
        <time>2023-02-12T13:44:26Z</time>
      </trkpt>
      <trkpt lat="45.844643292948604" lon="7.622669124975801">
        <ele>2020.6600000000001</ele>
        <time>2023-02-12T13:44:41Z</time>
      </trkpt>
      <trkpt lat="45.844659553840756" lon="7.622732659801841">
        <ele>2020.6900000000001</ele>
        <time>2023-02-12T13:44:47Z</time>
      </trkpt>
      <trkpt lat="45.844772960990667" lon="7.622848581522703">
        <ele>2019.1600000000001</ele>
        <time>2023-02-12T13:45:00Z</time>
      </trkpt>
      <trkpt lat="45.844722082838416" lon="7.623017309233546">
        <ele>2019.8099999999999</ele>
        <time>2023-02-12T13:45:13Z</time>
      </trkpt>
      <trkpt lat="45.844634491950274" lon="7.623176062479615">
        <ele>2021.01</ele>
        <time>2023-02-12T13:45:29Z</time>
      </trkpt>
      <trkpt lat="45.844613369554281" lon="7.623237753286958">
        <ele>2020.8699999999999</ele>
        <time>2023-02-12T13:45:36Z</time>
      </trkpt>
      <trkpt lat="45.844602053985" lon="7.623261222615838">
        <ele>2020.9200000000001</ele>
        <time>2023-02-12T13:45:38Z</time>
      </trkpt>
      <trkpt lat="45.844537597149611" lon="7.623353758826852">
        <ele>2021.6400000000001</ele>
        <time>2023-02-12T13:45:48Z</time>
      </trkpt>
      <trkpt lat="45.844380687922239" lon="7.623308328911662">
        <ele>2022.9200000000001</ele>
        <time>2023-02-12T13:46:03Z</time>
      </trkpt>
      <trkpt lat="45.844288822263479" lon="7.623247057199478">
        <ele>2022.8299999999999</ele>
        <time>2023-02-12T13:46:12Z</time>
      </trkpt>
      <trkpt lat="45.844133673235774" lon="7.623174637556076">
        <ele>2021.8599999999999</ele>
        <time>2023-02-12T13:46:27Z</time>
      </trkpt>
      <trkpt lat="45.84399227052927" lon="7.623211769387126">
        <ele>2018.46</ele>
        <time>2023-02-12T13:46:41Z</time>
      </trkpt>
      <trkpt lat="45.843848939985037" lon="7.623214535415173">
        <ele>2014.3499999999999</ele>
        <time>2023-02-12T13:46:55Z</time>
      </trkpt>
      <trkpt lat="45.843734359368682" lon="7.623102888464928">
        <ele>2009.9400000000001</ele>
        <time>2023-02-12T13:47:10Z</time>
      </trkpt>
      <trkpt lat="45.843682643026114" lon="7.623038096353412">
        <ele>2007.6700000000001</ele>
        <time>2023-02-12T13:47:18Z</time>
      </trkpt>
      <trkpt lat="45.843660766258836" lon="7.622933071106672">
        <ele>2006.21</ele>
        <time>2023-02-12T13:47:29Z</time>
      </trkpt>
      <trkpt lat="45.843587592244148" lon="7.622832572087646">
        <ele>2002.53</ele>
        <time>2023-02-12T13:47:41Z</time>
      </trkpt>
      <trkpt lat="45.843553226441145" lon="7.622695108875632">
        <ele>1998.77</ele>
        <time>2023-02-12T13:47:53Z</time>
      </trkpt>
      <trkpt lat="45.843517016619444" lon="7.622555466368794">
        <ele>1995.1400000000001</ele>
        <time>2023-02-12T13:48:06Z</time>
      </trkpt>
      <trkpt lat="45.843419283628464" lon="7.622335944324732">
        <ele>1989.48</ele>
        <time>2023-02-12T13:48:24Z</time>
      </trkpt>
      <trkpt lat="45.843388773500919" lon="7.622288083657622">
        <ele>1987.77</ele>
        <time>2023-02-12T13:48:30Z</time>
      </trkpt>
      <trkpt lat="45.843303110450506" lon="7.62225179001689">
        <ele>1984.1700000000001</ele>
        <time>2023-02-12T13:48:42Z</time>
      </trkpt>
      <trkpt lat="45.843269750475883" lon="7.622206443920732">
        <ele>1981.6199999999999</ele>
        <time>2023-02-12T13:48:52Z</time>
      </trkpt>
      <trkpt lat="45.843227254226804" lon="7.62224106118083">
        <ele>1979.2</ele>
        <time>2023-02-12T13:48:59Z</time>
      </trkpt>
      <trkpt lat="45.843223733827472" lon="7.62214575894177">
        <ele>1975.8299999999999</ele>
        <time>2023-02-12T13:49:09Z</time>
      </trkpt>
      <trkpt lat="45.843231277540326" lon="7.622025394812226">
        <ele>1973.5</ele>
        <time>2023-02-12T13:49:20Z</time>
      </trkpt>
      <trkpt lat="45.843193391337991" lon="7.621945347636938">
        <ele>1971.3800000000001</ele>
        <time>2023-02-12T13:49:31Z</time>
      </trkpt>
      <trkpt lat="45.843118289485574" lon="7.621998572722077">
        <ele>1966.96</ele>
        <time>2023-02-12T13:49:42Z</time>
      </trkpt>
      <trkpt lat="45.843066573143005" lon="7.622010307386518">
        <ele>1964.9000000000001</ele>
        <time>2023-02-12T13:49:50Z</time>
      </trkpt>
      <trkpt lat="45.843059699982405" lon="7.621952723711729">
        <ele>1964.76</ele>
        <time>2023-02-12T13:49:54Z</time>
      </trkpt>
      <trkpt lat="45.843056431040168" lon="7.621917938813567">
        <ele>1965.03</ele>
        <time>2023-02-12T13:50:04Z</time>
      </trkpt>
      <trkpt lat="45.843038074672222" lon="7.621924476698041">
        <ele>1964.0999999999999</ele>
        <time>2023-02-12T13:50:10Z</time>
      </trkpt>
      <trkpt lat="45.84298325702548" lon="7.621954903006554">
        <ele>1962.8699999999999</ele>
        <time>2023-02-12T13:50:21Z</time>
      </trkpt>
      <trkpt lat="45.842998428270221" lon="7.621948448941112">
        <ele>1962.6199999999999</ele>
        <time>2023-02-12T13:50:36Z</time>
      </trkpt>
      <trkpt lat="45.843026591464877" lon="7.621946185827255">
        <ele>1962.6900000000001</ele>
        <time>2023-02-12T13:50:49Z</time>
      </trkpt>
      <trkpt lat="45.843035811558366" lon="7.621946102008224">
        <ele>1961.9400000000001</ele>
        <time>2023-02-12T13:51:03Z</time>
      </trkpt>
      <trkpt lat="45.843031955882907" lon="7.62195372954011">
        <ele>1961.76</ele>
        <time>2023-02-12T13:51:18Z</time>
      </trkpt>
      <trkpt lat="45.843029692769051" lon="7.621958842501044">
        <ele>1961.4400000000001</ele>
        <time>2023-02-12T13:51:31Z</time>
      </trkpt>
      <trkpt lat="45.84301452152431" lon="7.621910395100713">
        <ele>1961.04</ele>
        <time>2023-02-12T13:51:43Z</time>
      </trkpt>
      <trkpt lat="45.842997590079904" lon="7.621818110346794">
        <ele>1959.1300000000001</ele>
        <time>2023-02-12T13:51:54Z</time>
      </trkpt>
      <trkpt lat="45.842984262853861" lon="7.621749714016914">
        <ele>1956.53</ele>
        <time>2023-02-12T13:52:02Z</time>
      </trkpt>
      <trkpt lat="45.842994572594762" lon="7.621647622436285">
        <ele>1953.1400000000001</ele>
        <time>2023-02-12T13:52:11Z</time>
      </trkpt>
      <trkpt lat="45.842942018061876" lon="7.621550727635622">
        <ele>1949.6800000000001</ele>
        <time>2023-02-12T13:52:21Z</time>
      </trkpt>
      <trkpt lat="45.842905640602112" lon="7.621523654088378">
        <ele>1949.54</ele>
        <time>2023-02-12T13:52:24Z</time>
      </trkpt>
      <trkpt lat="45.842822408303618" lon="7.621401194483042">
        <ele>1949.03</ele>
        <time>2023-02-12T13:52:36Z</time>
      </trkpt>
      <trkpt lat="45.842803884297609" lon="7.621328271925449">
        <ele>1947.1500000000001</ele>
        <time>2023-02-12T13:52:45Z</time>
      </trkpt>
      <trkpt lat="45.842798855155706" lon="7.621262473985553">
        <ele>1946.4000000000001</ele>
        <time>2023-02-12T13:52:52Z</time>
      </trkpt>
      <trkpt lat="45.8427560236305" lon="7.621221905574203">
        <ele>1945.6800000000001</ele>
        <time>2023-02-12T13:52:57Z</time>
      </trkpt>
      <trkpt lat="45.84266658872366" lon="7.621106235310435">
        <ele>1944.4100000000001</ele>
        <time>2023-02-12T13:53:11Z</time>
      </trkpt>
      <trkpt lat="45.842603053897619" lon="7.620993247255683">
        <ele>1941.9000000000001</ele>
        <time>2023-02-12T13:53:22Z</time>
      </trkpt>
      <trkpt lat="45.842588134109974" lon="7.620977154001594">
        <ele>1941.23</ele>
        <time>2023-02-12T13:53:24Z</time>
      </trkpt>
      <trkpt lat="45.842553852126002" lon="7.620836924761534">
        <ele>1938.28</ele>
        <time>2023-02-12T13:53:35Z</time>
      </trkpt>
      <trkpt lat="45.842540860176086" lon="7.620818316936493">
        <ele>1938.1600000000001</ele>
        <time>2023-02-12T13:53:37Z</time>
      </trkpt>
      <trkpt lat="45.842521162703633" lon="7.620806246995926">
        <ele>1938.3399999999999</ele>
        <time>2023-02-12T13:53:39Z</time>
      </trkpt>
      <trkpt lat="45.842491909861565" lon="7.620788142085075">
        <ele>1938.8099999999999</ele>
        <time>2023-02-12T13:53:42Z</time>
      </trkpt>
      <trkpt lat="45.842458130791783" lon="7.620735000818968">
        <ele>1939.0599999999999</ele>
        <time>2023-02-12T13:53:46Z</time>
      </trkpt>
      <trkpt lat="45.842369785532355" lon="7.620576750487089">
        <ele>1936.5</ele>
        <time>2023-02-12T13:53:59Z</time>
      </trkpt>
      <trkpt lat="45.842253193259239" lon="7.620510114356875">
        <ele>1934.9200000000001</ele>
        <time>2023-02-12T13:54:10Z</time>
      </trkpt>
      <trkpt lat="45.842175409197807" lon="7.620526123791933">
        <ele>1932.6300000000001</ele>
        <time>2023-02-12T13:54:21Z</time>
      </trkpt>
      <trkpt lat="45.842108856886625" lon="7.620504247024655">
        <ele>1930.51</ele>
        <time>2023-02-12T13:54:33Z</time>
      </trkpt>
      <trkpt lat="45.842053703963757" lon="7.620499636977911">
        <ele>1928.5999999999999</ele>
        <time>2023-02-12T13:54:42Z</time>
      </trkpt>
      <trkpt lat="45.84199720993638" lon="7.620532410219312">
        <ele>1927.48</ele>
        <time>2023-02-12T13:54:47Z</time>
      </trkpt>
      <trkpt lat="45.841832924634218" lon="7.620620504021645">
        <ele>1924.1300000000001</ele>
        <time>2023-02-12T13:55:03Z</time>
      </trkpt>
      <trkpt lat="45.841705184429884" lon="7.620577001944184">
        <ele>1922.48</ele>
        <time>2023-02-12T13:55:14Z</time>
      </trkpt>
      <trkpt lat="45.841681296005845" lon="7.62057289481163">
        <ele>1921.9200000000001</ele>
        <time>2023-02-12T13:55:16Z</time>
      </trkpt>
      <trkpt lat="45.841627987101674" lon="7.620503744110465">
        <ele>1920.75</ele>
        <time>2023-02-12T13:55:22Z</time>
      </trkpt>
      <trkpt lat="45.841520195826888" lon="7.620409531518817">
        <ele>1920.0699999999999</ele>
        <time>2023-02-12T13:55:36Z</time>
      </trkpt>
      <trkpt lat="45.841510221362114" lon="7.620407436043024">
        <ele>1919.95</ele>
        <time>2023-02-12T13:55:37Z</time>
      </trkpt>
      <trkpt lat="45.84139664657414" lon="7.620424535125494">
        <ele>1918.1199999999999</ele>
        <time>2023-02-12T13:55:52Z</time>
      </trkpt>
      <trkpt lat="45.841380469501019" lon="7.620444567874074">
        <ele>1917.3599999999999</ele>
        <time>2023-02-12T13:55:56Z</time>
      </trkpt>
      <trkpt lat="45.841302266344428" lon="7.620450267568231">
        <ele>1913.8199999999999</ele>
        <time>2023-02-12T13:56:07Z</time>
      </trkpt>
      <trkpt lat="45.841293800622225" lon="7.620456302538514">
        <ele>1913.5599999999999</ele>
        <time>2023-02-12T13:56:08Z</time>
      </trkpt>
      <trkpt lat="45.841197827830911" lon="7.620574738830328">
        <ele>1909.6099999999999</ele>
        <time>2023-02-12T13:56:22Z</time>
      </trkpt>
      <trkpt lat="45.841187937185168" lon="7.620661072432995">
        <ele>1908.47</ele>
        <time>2023-02-12T13:56:30Z</time>
      </trkpt>
      <trkpt lat="45.841084253042936" lon="7.620697114616633">
        <ele>1904.77</ele>
        <time>2023-02-12T13:56:43Z</time>
      </trkpt>
      <trkpt lat="45.840990459546447" lon="7.620719578117132">
        <ele>1900.4300000000001</ele>
        <time>2023-02-12T13:56:55Z</time>
      </trkpt>
      <trkpt lat="45.840943856164813" lon="7.620710860937834">
        <ele>1899.4200000000001</ele>
        <time>2023-02-12T13:57:00Z</time>
      </trkpt>
      <trkpt lat="45.840890379622579" lon="7.620646739378572">
        <ele>1897.8900000000001</ele>
        <time>2023-02-12T13:57:09Z</time>
      </trkpt>
      <trkpt lat="45.840798011049628" lon="7.620699293911457">
        <ele>1893.3800000000001</ele>
        <time>2023-02-12T13:57:21Z</time>
      </trkpt>
      <trkpt lat="45.840717041864991" lon="7.620760397985578">
        <ele>1890.8599999999999</ele>
        <time>2023-02-12T13:57:33Z</time>
      </trkpt>
      <trkpt lat="45.840633306652308" lon="7.620682781562209">
        <ele>1888.26</ele>
        <time>2023-02-12T13:57:45Z</time>
      </trkpt>
      <trkpt lat="45.840597348287702" lon="7.620681775733829">
        <ele>1887.26</ele>
        <time>2023-02-12T13:57:49Z</time>
      </trkpt>
      <trkpt lat="45.840543620288372" lon="7.620741538703442">
        <ele>1886.3900000000001</ele>
        <time>2023-02-12T13:57:56Z</time>
      </trkpt>
      <trkpt lat="45.840479750186205" lon="7.620886377990246">
        <ele>1885.1700000000001</ele>
        <time>2023-02-12T13:58:12Z</time>
      </trkpt>
      <trkpt lat="45.84049659781158" lon="7.620872966945171">
        <ele>1886.0999999999999</ele>
        <time>2023-02-12T13:58:38Z</time>
      </trkpt>
      <trkpt lat="45.840496262535453" lon="7.620872799307108">
        <ele>1887.2</ele>
        <time>2023-02-12T13:58:57Z</time>
      </trkpt>
      <trkpt lat="45.840494418516755" lon="7.620868775993586">
        <ele>1888.1099999999999</ele>
        <time>2023-02-12T13:59:11Z</time>
      </trkpt>
      <trkpt lat="45.840497938916087" lon="7.620879588648677">
        <ele>1889.3299999999999</ele>
        <time>2023-02-12T13:59:34Z</time>
      </trkpt>
      <trkpt lat="45.84048880264163" lon="7.620892077684403">
        <ele>1889.3499999999999</ele>
        <time>2023-02-12T14:00:00Z</time>
      </trkpt>
      <trkpt lat="45.840480085462332" lon="7.62089584954083">
        <ele>1889.8199999999999</ele>
        <time>2023-02-12T14:00:15Z</time>
      </trkpt>
      <trkpt lat="45.840483605861664" lon="7.620893670246005">
        <ele>1890.4000000000001</ele>
        <time>2023-02-12T14:00:44Z</time>
      </trkpt>
      <trkpt lat="45.840478409081697" lon="7.620895933359861">
        <ele>1891.5599999999999</ele>
        <time>2023-02-12T14:01:11Z</time>
      </trkpt>
      <trkpt lat="45.840475726872683" lon="7.620890149846673">
        <ele>1892.3</ele>
        <time>2023-02-12T14:01:37Z</time>
      </trkpt>
      <trkpt lat="45.840474972501397" lon="7.620900878682733">
        <ele>1892.5999999999999</ele>
        <time>2023-02-12T14:01:55Z</time>
      </trkpt>
      <trkpt lat="45.84047069773078" lon="7.62089928612113">
        <ele>1892.1700000000001</ele>
        <time>2023-02-12T14:02:17Z</time>
      </trkpt>
      <trkpt lat="45.840468518435955" lon="7.620903896167874">
        <ele>1891.76</ele>
        <time>2023-02-12T14:02:37Z</time>
      </trkpt>
      <trkpt lat="45.840469608083367" lon="7.620907919481397">
        <ele>1892.03</ele>
        <time>2023-02-12T14:03:02Z</time>
      </trkpt>
      <trkpt lat="45.840471787378192" lon="7.620912864804268">
        <ele>1891.78</ele>
        <time>2023-02-12T14:03:29Z</time>
      </trkpt>
      <trkpt lat="45.840455526486039" lon="7.620905824005604">
        <ele>1891.3399999999999</ele>
        <time>2023-02-12T14:03:55Z</time>
      </trkpt>
      <trkpt lat="45.840428536757827" lon="7.620906159281731">
        <ele>1891.03</ele>
        <time>2023-02-12T14:03:58Z</time>
      </trkpt>
      <trkpt lat="45.840296940878034" lon="7.620994001626968">
        <ele>1887.05</ele>
        <time>2023-02-12T14:04:13Z</time>
      </trkpt>
      <trkpt lat="45.840204572305083" lon="7.62110204435885">
        <ele>1884.03</ele>
        <time>2023-02-12T14:04:25Z</time>
      </trkpt>
      <trkpt lat="45.840169033035636" lon="7.621165914461017">
        <ele>1882.25</ele>
        <time>2023-02-12T14:04:31Z</time>
      </trkpt>
      <trkpt lat="45.840003993362188" lon="7.621246045455337">
        <ele>1877.26</ele>
        <time>2023-02-12T14:04:48Z</time>
      </trkpt>
      <trkpt lat="45.839877594262362" lon="7.621230958029628">
        <ele>1874.0799999999999</ele>
        <time>2023-02-12T14:05:02Z</time>
      </trkpt>
      <trkpt lat="45.839869882911444" lon="7.621224839240313">
        <ele>1873.8900000000001</ele>
        <time>2023-02-12T14:05:03Z</time>
      </trkpt>
      <trkpt lat="45.839812634512782" lon="7.621175386011601">
        <ele>1872.3199999999999</ele>
        <time>2023-02-12T14:05:10Z</time>
      </trkpt>
      <trkpt lat="45.839739041402936" lon="7.620959971100092">
        <ele>1869.3699999999999</ele>
        <time>2023-02-12T14:05:26Z</time>
      </trkpt>
      <trkpt lat="45.839653294533491" lon="7.620756207033992">
        <ele>1867</ele>
        <time>2023-02-12T14:05:42Z</time>
      </trkpt>
      <trkpt lat="45.839567128568888" lon="7.620624275878072">
        <ele>1863.9400000000001</ele>
        <time>2023-02-12T14:05:55Z</time>
      </trkpt>
      <trkpt lat="45.839465875178576" lon="7.620452865958214">
        <ele>1859.72</ele>
        <time>2023-02-12T14:06:11Z</time>
      </trkpt>
      <trkpt lat="45.839441735297441" lon="7.620432581752539">
        <ele>1859.24</ele>
        <time>2023-02-12T14:06:14Z</time>
      </trkpt>
      <trkpt lat="45.839367220178246" lon="7.620372399687767">
        <ele>1857.98</ele>
        <time>2023-02-12T14:06:26Z</time>
      </trkpt>
      <trkpt lat="45.839373003691435" lon="7.620466109365225">
        <ele>1857.3299999999999</ele>
        <time>2023-02-12T14:06:36Z</time>
      </trkpt>
      <trkpt lat="45.839367974549532" lon="7.620535679161549">
        <ele>1856.76</ele>
        <time>2023-02-12T14:06:41Z</time>
      </trkpt>
      <trkpt lat="45.839356072247028" lon="7.620755452662706">
        <ele>1855.5599999999999</ele>
        <time>2023-02-12T14:06:56Z</time>
      </trkpt>
      <trkpt lat="45.839313575997949" lon="7.620976567268372">
        <ele>1852.6800000000001</ele>
        <time>2023-02-12T14:07:11Z</time>
      </trkpt>
      <trkpt lat="45.839256159961224" lon="7.621139427646995">
        <ele>1848.96</ele>
        <time>2023-02-12T14:07:25Z</time>
      </trkpt>
      <trkpt lat="45.839125653728843" lon="7.621170692145824">
        <ele>1844.3</ele>
        <time>2023-02-12T14:07:40Z</time>
      </trkpt>
      <trkpt lat="45.839026160538197" lon="7.621207656338811">
        <ele>1840.98</ele>
        <time>2023-02-12T14:07:51Z</time>
      </trkpt>
      <trkpt lat="45.838924320414662" lon="7.621072959154844">
        <ele>1838.6700000000001</ele>
        <time>2023-02-12T14:08:05Z</time>
      </trkpt>
      <trkpt lat="45.83884360268712" lon="7.620941698551178">
        <ele>1836.53</ele>
        <time>2023-02-12T14:08:19Z</time>
      </trkpt>
      <trkpt lat="45.838838657364249" lon="7.620933149009943">
        <ele>1836.23</ele>
        <time>2023-02-12T14:08:20Z</time>
      </trkpt>
      <trkpt lat="45.838748216629028" lon="7.620928538963199">
        <ele>1832.53</ele>
        <time>2023-02-12T14:08:33Z</time>
      </trkpt>
      <trkpt lat="45.838685436174273" lon="7.620906578376889">
        <ele>1829.53</ele>
        <time>2023-02-12T14:08:44Z</time>
      </trkpt>
      <trkpt lat="45.838655261322856" lon="7.620845474302769">
        <ele>1828.6700000000001</ele>
        <time>2023-02-12T14:08:49Z</time>
      </trkpt>
      <trkpt lat="45.838623745366931" lon="7.620748244225979">
        <ele>1827.3499999999999</ele>
        <time>2023-02-12T14:08:56Z</time>
      </trkpt>
      <trkpt lat="45.838607316836715" lon="7.620684625580907">
        <ele>1826.72</ele>
        <time>2023-02-12T14:09:00Z</time>
      </trkpt>
      <trkpt lat="45.838537244126201" lon="7.620419338345528">
        <ele>1825.8</ele>
        <time>2023-02-12T14:09:17Z</time>
      </trkpt>
      <trkpt lat="45.838476391509175" lon="7.620143406093121">
        <ele>1823.6700000000001</ele>
        <time>2023-02-12T14:09:36Z</time>
      </trkpt>
      <trkpt lat="45.838404474779963" lon="7.619929248467088">
        <ele>1821.3699999999999</ele>
        <time>2023-02-12T14:09:51Z</time>
      </trkpt>
      <trkpt lat="45.838292744010687" lon="7.619721293449402">
        <ele>1820.03</ele>
        <time>2023-02-12T14:10:07Z</time>
      </trkpt>
      <trkpt lat="45.838179085403681" lon="7.61947494931519">
        <ele>1819.6400000000001</ele>
        <time>2023-02-12T14:10:26Z</time>
      </trkpt>
      <trkpt lat="45.838097697123885" lon="7.619216116145253">
        <ele>1818.98</ele>
        <time>2023-02-12T14:10:45Z</time>
      </trkpt>
      <trkpt lat="45.838072383776307" lon="7.619087621569634">
        <ele>1818.4100000000001</ele>
        <time>2023-02-12T14:10:57Z</time>
      </trkpt>
      <trkpt lat="45.83806567825377" lon="7.619085274636746">
        <ele>1818.2</ele>
        <time>2023-02-12T14:11:07Z</time>
      </trkpt>
      <trkpt lat="45.838080262765288" lon="7.619080999866128">
        <ele>1817.74</ele>
        <time>2023-02-12T14:11:29Z</time>
      </trkpt>
      <trkpt lat="45.838075233623385" lon="7.619077311828733">
        <ele>1817.55</ele>
        <time>2023-02-12T14:12:08Z</time>
      </trkpt>
      <trkpt lat="45.838081771507859" lon="7.619090136140585">
        <ele>1817.4000000000001</ele>
        <time>2023-02-12T14:12:36Z</time>
      </trkpt>
      <trkpt lat="45.838080178946257" lon="7.619078066200018">
        <ele>1817.4000000000001</ele>
        <time>2023-02-12T14:13:16Z</time>
      </trkpt>
      <trkpt lat="45.838074898347259" lon="7.619074545800686">
        <ele>1816.52</ele>
        <time>2023-02-12T14:13:53Z</time>
      </trkpt>
      <trkpt lat="45.838067773729563" lon="7.619085358455777">
        <ele>1816.3699999999999</ele>
        <time>2023-02-12T14:14:19Z</time>
      </trkpt>
      <trkpt lat="45.838072886690497" lon="7.619083933532238">
        <ele>1817.0699999999999</ele>
        <time>2023-02-12T14:14:39Z</time>
      </trkpt>
    </trkseg>
  </trk>

</gpx>